sensor_id;sensor_type;location;lat;lon;timestamp;P1;durP1;ratioP1;P2;durP2;ratioP2
55423;SDS011;41294;42.666;23.350;2023-03-01T00:01:58;5.47;;;3.83;;
55423;SDS011;41294;42.666;23.350;2023-03-01T00:04:24;4.83;;;3.40;;
55423;SDS011;41294;42.666;23.350;2023-03-01T00:06:49;4.23;;;3.67;;
55423;SDS011;41294;42.666;23.350;2023-03-01T00:09:15;4.83;;;4.00;;
55423;SDS011;41294;42.666;23.350;2023-03-01T00:11:41;4.93;;;4.00;;
55423;SDS011;41294;42.666;23.350;2023-03-01T00:14:06;4.47;;;4.07;;
55423;SDS011;41294;42.666;23.350;2023-03-01T00:16:33;5.83;;;4.17;;
55423;SDS011;41294;42.666;23.350;2023-03-01T00:19:00;4.07;;;3.53;;
55423;SDS011;41294;42.666;23.350;2023-03-01T00:21:27;5.13;;;3.70;;
55423;SDS011;41294;42.666;23.350;2023-03-01T00:23:53;4.17;;;3.47;;
55423;SDS011;41294;42.666;23.350;2023-03-01T00:26:20;3.60;;;3.30;;
55423;SDS011;41294;42.666;23.350;2023-03-01T00:28:49;5.73;;;3.70;;
55423;SDS011;41294;42.666;23.350;2023-03-01T00:31:16;4.07;;;2.60;;
55423;SDS011;41294;42.666;23.350;2023-03-01T00:33:44;4.67;;;3.83;;
55423;SDS011;41294;42.666;23.350;2023-03-01T00:36:11;3.83;;;3.27;;
55423;SDS011;41294;42.666;23.350;2023-03-01T00:38:39;5.40;;;3.77;;
55423;SDS011;41294;42.666;23.350;2023-03-01T00:41:07;3.87;;;3.37;;
55423;SDS011;41294;42.666;23.350;2023-03-01T00:43:34;2.90;;;2.70;;
55423;SDS011;41294;42.666;23.350;2023-03-01T00:46:07;3.67;;;3.37;;
55423;SDS011;41294;42.666;23.350;2023-03-01T00:48:35;3.70;;;3.20;;
55423;SDS011;41294;42.666;23.350;2023-03-01T00:51:08;5.67;;;3.27;;
55423;SDS011;41294;42.666;23.350;2023-03-01T00:53:38;3.17;;;2.63;;
55423;SDS011;41294;42.666;23.350;2023-03-01T00:56:04;2.87;;;2.63;;
55423;SDS011;41294;42.666;23.350;2023-03-01T00:58:31;3.77;;;3.20;;
55423;SDS011;41294;42.666;23.350;2023-03-01T01:00:57;3.73;;;2.90;;
55423;SDS011;41294;42.666;23.350;2023-03-01T01:03:23;3.97;;;3.27;;
55423;SDS011;41294;42.666;23.350;2023-03-01T01:05:50;4.47;;;2.90;;
55423;SDS011;41294;42.666;23.350;2023-03-01T01:08:16;4.50;;;3.50;;
55423;SDS011;41294;42.666;23.350;2023-03-01T01:10:43;4.30;;;3.30;;
55423;SDS011;41294;42.666;23.350;2023-03-01T01:13:09;4.23;;;3.07;;
55423;SDS011;41294;42.666;23.350;2023-03-01T01:15:34;2.83;;;2.50;;
55423;SDS011;41294;42.666;23.350;2023-03-01T01:18:00;3.47;;;2.80;;
55423;SDS011;41294;42.666;23.350;2023-03-01T01:20:26;2.40;;;2.20;;
55423;SDS011;41294;42.666;23.350;2023-03-01T01:22:51;2.57;;;2.37;;
55423;SDS011;41294;42.666;23.350;2023-03-01T01:25:17;2.80;;;2.60;;
55423;SDS011;41294;42.666;23.350;2023-03-01T01:27:43;2.50;;;2.30;;
55423;SDS011;41294;42.666;23.350;2023-03-01T01:30:08;2.57;;;2.37;;
55423;SDS011;41294;42.666;23.350;2023-03-01T01:32:34;2.53;;;2.33;;
55423;SDS011;41294;42.666;23.350;2023-03-01T01:35:00;3.67;;;2.53;;
55423;SDS011;41294;42.666;23.350;2023-03-01T01:37:25;2.63;;;2.43;;
55423;SDS011;41294;42.666;23.350;2023-03-01T01:39:56;2.40;;;2.20;;
55423;SDS011;41294;42.666;23.350;2023-03-01T01:42:24;2.83;;;2.30;;
55423;SDS011;41294;42.666;23.350;2023-03-01T01:45:15;2.90;;;2.60;;
55423;SDS011;41294;42.666;23.350;2023-03-01T01:47:57;2.40;;;2.20;;
55423;SDS011;41294;42.666;23.350;2023-03-01T01:50:27;2.13;;;2.00;;
55423;SDS011;41294;42.666;23.350;2023-03-01T01:53:14;2.53;;;2.33;;
55423;SDS011;41294;42.666;23.350;2023-03-01T01:55:45;2.30;;;2.10;;
55423;SDS011;41294;42.666;23.350;2023-03-01T01:58:17;2.40;;;2.20;;
55423;SDS011;41294;42.666;23.350;2023-03-01T02:00:45;2.03;;;1.93;;
55423;SDS011;41294;42.666;23.350;2023-03-01T02:03:13;2.40;;;2.30;;
55423;SDS011;41294;42.666;23.350;2023-03-01T02:05:49;2.00;;;1.90;;
55423;SDS011;41294;42.666;23.350;2023-03-01T02:08:20;2.17;;;2.07;;
55423;SDS011;41294;42.666;23.350;2023-03-01T02:10:48;2.47;;;2.27;;
55423;SDS011;41294;42.666;23.350;2023-03-01T02:13:14;1.93;;;1.83;;
55423;SDS011;41294;42.666;23.350;2023-03-01T02:15:40;2.30;;;2.10;;
55423;SDS011;41294;42.666;23.350;2023-03-01T02:18:06;2.00;;;1.90;;
55423;SDS011;41294;42.666;23.350;2023-03-01T02:23:16;1.90;;;1.80;;
55423;SDS011;41294;42.666;23.350;2023-03-01T02:25:46;2.10;;;2.00;;
55423;SDS011;41294;42.666;23.350;2023-03-01T02:30:46;2.30;;;2.20;;
55423;SDS011;41294;42.666;23.350;2023-03-01T02:33:33;2.10;;;2.00;;
55423;SDS011;41294;42.666;23.350;2023-03-01T02:36:05;2.07;;;1.97;;
55423;SDS011;41294;42.666;23.350;2023-03-01T02:38:34;2.93;;;2.57;;
55423;SDS011;41294;42.666;23.350;2023-03-01T02:41:00;1.63;;;1.53;;
55423;SDS011;41294;42.666;23.350;2023-03-01T02:43:28;2.67;;;2.40;;
55423;SDS011;41294;42.666;23.350;2023-03-01T02:45:58;2.03;;;1.83;;
55423;SDS011;41294;42.666;23.350;2023-03-01T02:48:38;2.10;;;2.00;;
55423;SDS011;41294;42.666;23.350;2023-03-01T02:56:37;2.83;;;2.63;;
55423;SDS011;41294;42.666;23.350;2023-03-01T02:59:03;3.10;;;2.80;;
55423;SDS011;41294;42.666;23.350;2023-03-01T03:01:29;2.73;;;2.47;;
55423;SDS011;41294;42.666;23.350;2023-03-01T03:04:08;2.57;;;2.37;;
55423;SDS011;41294;42.666;23.350;2023-03-01T03:06:46;2.57;;;2.37;;
55423;SDS011;41294;42.666;23.350;2023-03-01T03:09:15;2.60;;;2.40;;
55423;SDS011;41294;42.666;23.350;2023-03-01T03:11:41;3.13;;;2.87;;
55423;SDS011;41294;42.666;23.350;2023-03-01T03:14:08;3.40;;;3.10;;
55423;SDS011;41294;42.666;23.350;2023-03-01T03:16:45;3.20;;;2.90;;
55423;SDS011;41294;42.666;23.350;2023-03-01T03:19:12;3.20;;;2.90;;
55423;SDS011;41294;42.666;23.350;2023-03-01T03:21:37;3.57;;;3.23;;
55423;SDS011;41294;42.666;23.350;2023-03-01T03:24:03;3.50;;;3.20;;
55423;SDS011;41294;42.666;23.350;2023-03-01T03:26:29;3.40;;;3.10;;
55423;SDS011;41294;42.666;23.350;2023-03-01T03:28:55;3.33;;;2.93;;
55423;SDS011;41294;42.666;23.350;2023-03-01T03:31:21;2.83;;;2.60;;
55423;SDS011;41294;42.666;23.350;2023-03-01T03:33:47;3.27;;;2.97;;
55423;SDS011;41294;42.666;23.350;2023-03-01T03:36:16;3.03;;;2.73;;
55423;SDS011;41294;42.666;23.350;2023-03-01T03:38:46;3.30;;;3.03;;
55423;SDS011;41294;42.666;23.350;2023-03-01T03:41:12;3.60;;;2.80;;
55423;SDS011;41294;42.666;23.350;2023-03-01T03:43:39;2.23;;;2.03;;
55423;SDS011;41294;42.666;23.350;2023-03-01T03:46:24;2.47;;;2.27;;
55423;SDS011;41294;42.666;23.350;2023-03-01T03:49:26;2.07;;;1.87;;
55423;SDS011;41294;42.666;23.350;2023-03-01T03:51:52;2.73;;;2.53;;
55423;SDS011;41294;42.666;23.350;2023-03-01T03:54:17;2.50;;;2.30;;
55423;SDS011;41294;42.666;23.350;2023-03-01T03:56:43;2.70;;;2.40;;
55423;SDS011;41294;42.666;23.350;2023-03-01T03:59:27;2.23;;;2.10;;
55423;SDS011;41294;42.666;23.350;2023-03-01T04:01:52;2.83;;;2.63;;
55423;SDS011;41294;42.666;23.350;2023-03-01T04:04:17;2.17;;;1.97;;
55423;SDS011;41294;42.666;23.350;2023-03-01T04:06:43;2.90;;;2.70;;
55423;SDS011;41294;42.666;23.350;2023-03-01T04:09:09;4.00;;;3.03;;
55423;SDS011;41294;42.666;23.350;2023-03-01T04:11:34;2.80;;;2.60;;
55423;SDS011;41294;42.666;23.350;2023-03-01T04:14:00;2.67;;;2.47;;
55423;SDS011;41294;42.666;23.350;2023-03-01T04:16:25;3.40;;;2.80;;
55423;SDS011;41294;42.666;23.350;2023-03-01T04:18:51;2.73;;;2.33;;
55423;SDS011;41294;42.666;23.350;2023-03-01T04:21:18;2.97;;;2.60;;
55423;SDS011;41294;42.666;23.350;2023-03-01T04:23:45;2.73;;;2.53;;
55423;SDS011;41294;42.666;23.350;2023-03-01T04:26:10;2.67;;;2.47;;
55423;SDS011;41294;42.666;23.350;2023-03-01T04:28:37;3.33;;;2.70;;
55423;SDS011;41294;42.666;23.350;2023-03-01T04:31:10;2.73;;;2.47;;
55423;SDS011;41294;42.666;23.350;2023-03-01T04:33:38;2.93;;;2.67;;
55423;SDS011;41294;42.666;23.350;2023-03-01T04:36:07;3.53;;;3.07;;
55423;SDS011;41294;42.666;23.350;2023-03-01T04:38:35;2.80;;;2.60;;
55423;SDS011;41294;42.666;23.350;2023-03-01T04:41:02;3.47;;;3.10;;
55423;SDS011;41294;42.666;23.350;2023-03-01T04:43:32;3.37;;;3.07;;
55423;SDS011;41294;42.666;23.350;2023-03-01T04:46:06;4.10;;;2.67;;
55423;SDS011;41294;42.666;23.350;2023-03-01T04:48:37;3.40;;;3.10;;
55423;SDS011;41294;42.666;23.350;2023-03-01T04:51:05;3.40;;;2.87;;
55423;SDS011;41294;42.666;23.350;2023-03-01T04:53:31;3.30;;;3.00;;
55423;SDS011;41294;42.666;23.350;2023-03-01T04:55:57;2.97;;;2.70;;
55423;SDS011;41294;42.666;23.350;2023-03-01T04:58:24;3.13;;;2.80;;
55423;SDS011;41294;42.666;23.350;2023-03-01T05:00:51;5.50;;;2.80;;
55423;SDS011;41294;42.666;23.350;2023-03-01T05:03:17;3.20;;;2.90;;
55423;SDS011;41294;42.666;23.350;2023-03-01T05:05:43;2.97;;;2.70;;
55423;SDS011;41294;42.666;23.350;2023-03-01T05:08:10;3.23;;;2.67;;
55423;SDS011;41294;42.666;23.350;2023-03-01T05:10:43;2.60;;;2.40;;
55423;SDS011;41294;42.666;23.350;2023-03-01T05:13:14;2.53;;;2.33;;
55423;SDS011;41294;42.666;23.350;2023-03-01T05:15:46;3.30;;;2.53;;
55423;SDS011;41294;42.666;23.350;2023-03-01T05:18:22;3.63;;;2.47;;
55423;SDS011;41294;42.666;23.350;2023-03-01T05:20:51;1.93;;;1.83;;
55423;SDS011;41294;42.666;23.350;2023-03-01T05:23:21;3.20;;;2.67;;
55423;SDS011;41294;42.666;23.350;2023-03-01T05:25:47;2.53;;;2.23;;
55423;SDS011;41294;42.666;23.350;2023-03-01T05:28:14;2.77;;;2.53;;
55423;SDS011;41294;42.666;23.350;2023-03-01T05:30:40;2.40;;;2.17;;
55423;SDS011;41294;42.666;23.350;2023-03-01T05:33:05;2.57;;;2.37;;
55423;SDS011;41294;42.666;23.350;2023-03-01T05:35:38;2.50;;;2.30;;
55423;SDS011;41294;42.666;23.350;2023-03-01T05:38:07;2.73;;;2.50;;
55423;SDS011;41294;42.666;23.350;2023-03-01T05:40:34;2.67;;;2.47;;
55423;SDS011;41294;42.666;23.350;2023-03-01T05:43:00;3.00;;;2.70;;
55423;SDS011;41294;42.666;23.350;2023-03-01T05:45:26;3.17;;;2.60;;
55423;SDS011;41294;42.666;23.350;2023-03-01T05:47:53;3.03;;;2.37;;
55423;SDS011;41294;42.666;23.350;2023-03-01T05:52:51;2.27;;;2.17;;
55423;SDS011;41294;42.666;23.350;2023-03-01T05:55:21;2.20;;;2.00;;
55423;SDS011;41294;42.666;23.350;2023-03-01T05:57:47;2.10;;;1.90;;
55423;SDS011;41294;42.666;23.350;2023-03-01T06:00:13;2.40;;;2.20;;
55423;SDS011;41294;42.666;23.350;2023-03-01T06:02:40;5.03;;;2.53;;
55423;SDS011;41294;42.666;23.350;2023-03-01T06:05:07;2.27;;;2.07;;
55423;SDS011;41294;42.666;23.350;2023-03-01T06:07:34;2.70;;;2.43;;
55423;SDS011;41294;42.666;23.350;2023-03-01T06:10:00;2.70;;;2.50;;
55423;SDS011;41294;42.666;23.350;2023-03-01T06:12:25;4.20;;;3.20;;
55423;SDS011;41294;42.666;23.350;2023-03-01T06:14:51;3.07;;;2.80;;
55423;SDS011;41294;42.666;23.350;2023-03-01T06:17:16;2.60;;;2.40;;
55423;SDS011;41294;42.666;23.350;2023-03-01T06:19:41;3.70;;;3.20;;
55423;SDS011;41294;42.666;23.350;2023-03-01T06:22:07;5.53;;;3.73;;
55423;SDS011;41294;42.666;23.350;2023-03-01T06:24:33;3.43;;;3.13;;
55423;SDS011;41294;42.666;23.350;2023-03-01T06:26:58;4.33;;;3.57;;
55423;SDS011;41294;42.666;23.350;2023-03-01T06:29:24;4.00;;;3.57;;
55423;SDS011;41294;42.666;23.350;2023-03-01T06:31:49;4.10;;;3.33;;
55423;SDS011;41294;42.666;23.350;2023-03-01T06:34:15;3.30;;;3.00;;
55423;SDS011;41294;42.666;23.350;2023-03-01T06:36:40;4.37;;;2.83;;
55423;SDS011;41294;42.666;23.350;2023-03-01T06:39:06;3.30;;;3.00;;
55423;SDS011;41294;42.666;23.350;2023-03-01T06:41:32;4.87;;;2.90;;
55423;SDS011;41294;42.666;23.350;2023-03-01T06:43:58;3.50;;;2.97;;
55423;SDS011;41294;42.666;23.350;2023-03-01T06:46:24;3.33;;;3.03;;
55423;SDS011;41294;42.666;23.350;2023-03-01T06:48:49;3.40;;;3.10;;
55423;SDS011;41294;42.666;23.350;2023-03-01T06:51:15;4.13;;;2.80;;
55423;SDS011;41294;42.666;23.350;2023-03-01T06:53:40;5.27;;;2.87;;
55423;SDS011;41294;42.666;23.350;2023-03-01T06:56:06;4.73;;;3.33;;
55423;SDS011;41294;42.666;23.350;2023-03-01T06:58:31;4.23;;;3.03;;
55423;SDS011;41294;42.666;23.350;2023-03-01T07:00:56;4.43;;;2.73;;
55423;SDS011;41294;42.666;23.350;2023-03-01T07:03:22;4.10;;;3.00;;
55423;SDS011;41294;42.666;23.350;2023-03-01T07:05:51;2.50;;;2.30;;
55423;SDS011;41294;42.666;23.350;2023-03-01T07:08:17;2.93;;;2.67;;
55423;SDS011;41294;42.666;23.350;2023-03-01T07:10:43;8.07;;;3.33;;
55423;SDS011;41294;42.666;23.350;2023-03-01T07:13:08;5.73;;;3.03;;
55423;SDS011;41294;42.666;23.350;2023-03-01T07:15:34;3.53;;;2.27;;
55423;SDS011;41294;42.666;23.350;2023-03-01T07:17:59;2.70;;;2.50;;
55423;SDS011;41294;42.666;23.350;2023-03-01T07:20:24;1.90;;;1.80;;
55423;SDS011;41294;42.666;23.350;2023-03-01T07:22:51;4.73;;;3.00;;
55423;SDS011;41294;42.666;23.350;2023-03-01T07:25:17;5.67;;;3.00;;
55423;SDS011;41294;42.666;23.350;2023-03-01T07:27:42;4.20;;;3.23;;
55423;SDS011;41294;42.666;23.350;2023-03-01T07:30:08;3.53;;;2.47;;
55423;SDS011;41294;42.666;23.350;2023-03-01T07:32:34;3.53;;;2.77;;
55423;SDS011;41294;42.666;23.350;2023-03-01T07:35:00;5.33;;;2.40;;
55423;SDS011;41294;42.666;23.350;2023-03-01T07:37:25;2.80;;;2.40;;
55423;SDS011;41294;42.666;23.350;2023-03-01T07:39:51;4.63;;;2.90;;
55423;SDS011;41294;42.666;23.350;2023-03-01T07:42:16;4.00;;;2.83;;
55423;SDS011;41294;42.666;23.350;2023-03-01T07:45:00;4.57;;;2.30;;
55423;SDS011;41294;42.666;23.350;2023-03-01T07:47:25;2.43;;;2.23;;
55423;SDS011;41294;42.666;23.350;2023-03-01T07:49:51;3.27;;;2.60;;
55423;SDS011;41294;42.666;23.350;2023-03-01T07:52:16;3.67;;;2.50;;
55423;SDS011;41294;42.666;23.350;2023-03-01T07:54:43;2.77;;;1.93;;
55423;SDS011;41294;42.666;23.350;2023-03-01T07:57:09;3.10;;;2.10;;
55423;SDS011;41294;42.666;23.350;2023-03-01T07:59:35;2.73;;;2.10;;
55423;SDS011;41294;42.666;23.350;2023-03-01T08:02:00;2.87;;;2.67;;
55423;SDS011;41294;42.666;23.350;2023-03-01T08:04:26;2.33;;;2.13;;
55423;SDS011;41294;42.666;23.350;2023-03-01T08:06:52;2.30;;;2.10;;
55423;SDS011;41294;42.666;23.350;2023-03-01T08:09:18;3.87;;;2.30;;
55423;SDS011;41294;42.666;23.350;2023-03-01T08:11:43;2.53;;;2.23;;
55423;SDS011;41294;42.666;23.350;2023-03-01T08:14:09;2.47;;;2.27;;
55423;SDS011;41294;42.666;23.350;2023-03-01T08:16:35;1.97;;;1.87;;
55423;SDS011;41294;42.666;23.350;2023-03-01T08:19:11;2.03;;;1.80;;
55423;SDS011;41294;42.666;23.350;2023-03-01T08:21:37;2.60;;;2.40;;
55423;SDS011;41294;42.666;23.350;2023-03-01T08:24:03;3.13;;;2.93;;
55423;SDS011;41294;42.666;23.350;2023-03-01T08:26:30;3.37;;;2.90;;
55423;SDS011;41294;42.666;23.350;2023-03-01T08:28:56;4.47;;;3.10;;
55423;SDS011;41294;42.666;23.350;2023-03-01T08:31:27;9.47;;;2.80;;
55423;SDS011;41294;42.666;23.350;2023-03-01T08:33:55;5.20;;;2.90;;
55423;SDS011;41294;42.666;23.350;2023-03-01T08:36:23;3.60;;;3.30;;
55423;SDS011;41294;42.666;23.350;2023-03-01T08:39:01;2.30;;;2.20;;
55423;SDS011;41294;42.666;23.350;2023-03-01T08:41:28;4.17;;;2.57;;
55423;SDS011;41294;42.666;23.350;2023-03-01T08:43:53;3.07;;;2.87;;
55423;SDS011;41294;42.666;23.350;2023-03-01T08:46:23;3.63;;;2.43;;
55423;SDS011;41294;42.666;23.350;2023-03-01T08:48:53;4.00;;;2.90;;
55423;SDS011;41294;42.666;23.350;2023-03-01T08:51:19;5.60;;;2.70;;
55423;SDS011;41294;42.666;23.350;2023-03-01T08:53:45;9.23;;;3.07;;
55423;SDS011;41294;42.666;23.350;2023-03-01T08:56:12;3.73;;;3.10;;
55423;SDS011;41294;42.666;23.350;2023-03-01T08:58:38;4.43;;;3.00;;
55423;SDS011;41294;42.666;23.350;2023-03-01T09:01:07;3.60;;;3.30;;
55423;SDS011;41294;42.666;23.350;2023-03-01T09:03:34;3.60;;;3.30;;
55423;SDS011;41294;42.666;23.350;2023-03-01T09:06:00;3.43;;;3.00;;
55423;SDS011;41294;42.666;23.350;2023-03-01T09:08:27;3.40;;;3.10;;
55423;SDS011;41294;42.666;23.350;2023-03-01T09:10:52;3.57;;;2.80;;
55423;SDS011;41294;42.666;23.350;2023-03-01T09:13:18;2.73;;;2.53;;
55423;SDS011;41294;42.666;23.350;2023-03-01T09:15:43;2.70;;;2.40;;
55423;SDS011;41294;42.666;23.350;2023-03-01T09:18:09;2.53;;;2.20;;
55423;SDS011;41294;42.666;23.350;2023-03-01T09:20:34;2.33;;;2.13;;
55423;SDS011;41294;42.666;23.350;2023-03-01T09:23:00;2.37;;;2.17;;
55423;SDS011;41294;42.666;23.350;2023-03-01T09:25:25;4.47;;;3.10;;
55423;SDS011;41294;42.666;23.350;2023-03-01T09:27:51;4.77;;;3.43;;
55423;SDS011;41294;42.666;23.350;2023-03-01T09:30:17;5.63;;;3.20;;
55423;SDS011;41294;42.666;23.350;2023-03-01T09:32:43;2.33;;;1.83;;
55423;SDS011;41294;42.666;23.350;2023-03-01T09:35:09;3.77;;;2.10;;
55423;SDS011;41294;42.666;23.350;2023-03-01T09:37:36;2.00;;;1.80;;
55423;SDS011;41294;42.666;23.350;2023-03-01T09:40:12;2.37;;;1.90;;
55423;SDS011;41294;42.666;23.350;2023-03-01T09:42:46;2.13;;;1.93;;
55423;SDS011;41294;42.666;23.350;2023-03-01T09:45:23;2.33;;;1.93;;
55423;SDS011;41294;42.666;23.350;2023-03-01T09:47:52;3.37;;;2.50;;
55423;SDS011;41294;42.666;23.350;2023-03-01T09:50:20;1.77;;;1.67;;
55423;SDS011;41294;42.666;23.350;2023-03-01T09:55:20;2.10;;;1.93;;
55423;SDS011;41294;42.666;23.350;2023-03-01T09:58:25;1.70;;;1.60;;
55423;SDS011;41294;42.666;23.350;2023-03-01T10:06:56;2.10;;;2.00;;
55423;SDS011;41294;42.666;23.350;2023-03-01T10:09:30;2.83;;;1.97;;
55423;SDS011;41294;42.666;23.350;2023-03-01T10:11:59;2.23;;;2.03;;
55423;SDS011;41294;42.666;23.350;2023-03-01T10:19:51;2.27;;;2.07;;
55423;SDS011;41294;42.666;23.350;2023-03-01T10:22:21;2.20;;;2.00;;
55423;SDS011;41294;42.666;23.350;2023-03-01T10:24:53;2.20;;;2.00;;
55423;SDS011;41294;42.666;23.350;2023-03-01T10:27:33;2.23;;;2.13;;
55423;SDS011;41294;42.666;23.350;2023-03-01T10:30:21;1.90;;;1.80;;
55423;SDS011;41294;42.666;23.350;2023-03-01T10:32:54;1.80;;;1.60;;
55423;SDS011;41294;42.666;23.350;2023-03-01T10:35:23;3.53;;;2.97;;
55423;SDS011;41294;42.666;23.350;2023-03-01T10:38:24;2.40;;;2.27;;
55423;SDS011;41294;42.666;23.350;2023-03-01T10:40:50;2.50;;;2.30;;
55423;SDS011;41294;42.666;23.350;2023-03-01T10:43:16;1.93;;;1.80;;
55423;SDS011;41294;42.666;23.350;2023-03-01T10:45:42;2.57;;;2.17;;
55423;SDS011;41294;42.666;23.350;2023-03-01T10:50:33;3.20;;;2.30;;
55423;SDS011;41294;42.666;23.350;2023-03-01T10:53:03;3.37;;;2.63;;
55423;SDS011;41294;42.666;23.350;2023-03-01T10:55:36;2.30;;;2.20;;
55423;SDS011;41294;42.666;23.350;2023-03-01T10:58:25;2.73;;;2.07;;
55423;SDS011;41294;42.666;23.350;2023-03-01T11:00:50;3.80;;;2.50;;
55423;SDS011;41294;42.666;23.350;2023-03-01T11:03:22;2.57;;;2.10;;
55423;SDS011;41294;42.666;23.350;2023-03-01T11:05:54;7.50;;;2.20;;
55423;SDS011;41294;42.666;23.350;2023-03-01T11:11:05;2.57;;;2.10;;
55423;SDS011;41294;42.666;23.350;2023-03-01T11:13:39;2.80;;;2.23;;
55423;SDS011;41294;42.666;23.350;2023-03-01T11:16:16;2.47;;;2.27;;
55423;SDS011;41294;42.666;23.350;2023-03-01T11:19:04;3.43;;;2.37;;
55423;SDS011;41294;42.666;23.350;2023-03-01T11:22:25;3.00;;;2.70;;
55423;SDS011;41294;42.666;23.350;2023-03-01T11:24:33;3.77;;;3.07;;
55423;SDS011;41294;42.666;23.350;2023-03-01T11:27:10;4.10;;;2.03;;
55423;SDS011;41294;42.666;23.350;2023-03-01T11:32:54;2.43;;;2.23;;
55423;SDS011;41294;42.666;23.350;2023-03-01T11:35:28;3.63;;;3.00;;
55423;SDS011;41294;42.666;23.350;2023-03-01T11:40:27;2.33;;;2.20;;
55423;SDS011;41294;42.666;23.350;2023-03-01T11:46:06;4.07;;;2.97;;
55423;SDS011;41294;42.666;23.350;2023-03-01T11:54:29;6.67;;;2.87;;
55423;SDS011;41294;42.666;23.350;2023-03-01T11:57:20;3.07;;;2.80;;
55423;SDS011;41294;42.666;23.350;2023-03-01T12:00:03;2.83;;;2.63;;
55423;SDS011;41294;42.666;23.350;2023-03-01T12:02:52;3.83;;;2.83;;
55423;SDS011;41294;42.666;23.350;2023-03-01T12:21:59;4.97;;;3.50;;
55423;SDS011;41294;42.666;23.350;2023-03-01T12:24:41;4.20;;;3.80;;
55423;SDS011;41294;42.666;23.350;2023-03-01T12:46:56;4.80;;;3.30;;
55423;SDS011;41294;42.666;23.350;2023-03-01T12:49:31;4.40;;;3.67;;
55423;SDS011;41294;42.666;23.350;2023-03-01T12:52:06;3.30;;;3.00;;
55423;SDS011;41294;42.666;23.350;2023-03-01T12:54:47;4.07;;;3.27;;
55423;SDS011;41294;42.666;23.350;2023-03-01T12:57:30;3.37;;;3.07;;
55423;SDS011;41294;42.666;23.350;2023-03-01T13:15:32;3.90;;;3.50;;
55423;SDS011;41294;42.666;23.350;2023-03-01T13:20:44;3.80;;;3.40;;
55423;SDS011;41294;42.666;23.350;2023-03-01T13:33:54;2.87;;;2.57;;
55423;SDS011;41294;42.666;23.350;2023-03-01T13:54:57;3.33;;;2.87;;
55423;SDS011;41294;42.666;23.350;2023-03-01T13:57:29;3.13;;;2.70;;
55423;SDS011;41294;42.666;23.350;2023-03-01T14:00:02;5.40;;;3.27;;
55423;SDS011;41294;42.666;23.350;2023-03-01T14:02:29;3.37;;;2.80;;
55423;SDS011;41294;42.666;23.350;2023-03-01T14:04:58;4.07;;;3.00;;
55423;SDS011;41294;42.666;23.350;2023-03-01T14:07:25;6.70;;;3.20;;
55423;SDS011;41294;42.666;23.350;2023-03-01T14:09:55;3.60;;;3.07;;
55423;SDS011;41294;42.666;23.350;2023-03-01T14:15:24;4.17;;;3.40;;
55423;SDS011;41294;42.666;23.350;2023-03-01T14:18:02;3.40;;;3.10;;
55423;SDS011;41294;42.666;23.350;2023-03-01T14:20:38;3.53;;;2.63;;
55423;SDS011;41294;42.666;23.350;2023-03-01T14:23:13;4.10;;;2.90;;
55423;SDS011;41294;42.666;23.350;2023-03-01T14:25:49;3.90;;;3.50;;
55423;SDS011;41294;42.666;23.350;2023-03-01T14:28:18;2.93;;;2.60;;
55423;SDS011;41294;42.666;23.350;2023-03-01T14:30:47;3.53;;;3.00;;
55423;SDS011;41294;42.666;23.350;2023-03-01T14:33:31;2.50;;;2.30;;
55423;SDS011;41294;42.666;23.350;2023-03-01T14:36:11;3.33;;;2.67;;
55423;SDS011;41294;42.666;23.350;2023-03-01T14:38:39;3.17;;;2.57;;
55423;SDS011;41294;42.666;23.350;2023-03-01T14:41:25;2.87;;;2.67;;
55423;SDS011;41294;42.666;23.350;2023-03-01T14:43:55;4.53;;;2.43;;
55423;SDS011;41294;42.666;23.350;2023-03-01T14:46:44;5.63;;;3.00;;
55423;SDS011;41294;42.666;23.350;2023-03-01T14:49:12;2.87;;;2.20;;
55423;SDS011;41294;42.666;23.350;2023-03-01T14:51:41;3.00;;;2.17;;
55423;SDS011;41294;42.666;23.350;2023-03-01T14:54:24;3.03;;;2.50;;
55423;SDS011;41294;42.666;23.350;2023-03-01T14:57:01;9.03;;;2.70;;
55423;SDS011;41294;42.666;23.350;2023-03-01T14:59:27;3.47;;;2.70;;
55423;SDS011;41294;42.666;23.350;2023-03-01T15:01:53;2.60;;;2.37;;
55423;SDS011;41294;42.666;23.350;2023-03-01T15:04:21;7.73;;;2.70;;
55423;SDS011;41294;42.666;23.350;2023-03-01T15:06:50;7.60;;;2.90;;
55423;SDS011;41294;42.666;23.350;2023-03-01T15:09:16;6.70;;;3.53;;
55423;SDS011;41294;42.666;23.350;2023-03-01T15:11:43;4.13;;;3.00;;
55423;SDS011;41294;42.666;23.350;2023-03-01T15:17:20;5.53;;;3.13;;
55423;SDS011;41294;42.666;23.350;2023-03-01T15:19:52;3.73;;;2.60;;
55423;SDS011;41294;42.666;23.350;2023-03-01T15:22:17;4.90;;;2.80;;
55423;SDS011;41294;42.666;23.350;2023-03-01T15:24:46;5.57;;;3.10;;
55423;SDS011;41294;42.666;23.350;2023-03-01T15:27:17;3.43;;;3.13;;
55423;SDS011;41294;42.666;23.350;2023-03-01T15:30:03;4.80;;;3.50;;
55423;SDS011;41294;42.666;23.350;2023-03-01T15:34:59;4.73;;;3.27;;
55423;SDS011;41294;42.666;23.350;2023-03-01T15:37:40;6.20;;;3.30;;
55423;SDS011;41294;42.666;23.350;2023-03-01T15:40:24;3.70;;;3.13;;
55423;SDS011;41294;42.666;23.350;2023-03-01T15:43:03;3.63;;;3.33;;
55423;SDS011;41294;42.666;23.350;2023-03-01T15:45:30;4.60;;;4.10;;
55423;SDS011;41294;42.666;23.350;2023-03-01T15:48:03;4.40;;;3.70;;
55423;SDS011;41294;42.666;23.350;2023-03-01T15:50:57;5.40;;;3.30;;
55423;SDS011;41294;42.666;23.350;2023-03-01T15:53:24;4.77;;;4.10;;
55423;SDS011;41294;42.666;23.350;2023-03-01T15:55:52;4.20;;;3.50;;
55423;SDS011;41294;42.666;23.350;2023-03-01T15:58:19;5.03;;;3.70;;
55423;SDS011;41294;42.666;23.350;2023-03-01T16:00:46;4.70;;;3.60;;
55423;SDS011;41294;42.666;23.350;2023-03-01T16:03:13;5.83;;;3.20;;
55423;SDS011;41294;42.666;23.350;2023-03-01T16:05:41;6.93;;;3.93;;
55423;SDS011;41294;42.666;23.350;2023-03-01T16:08:07;3.60;;;3.07;;
55423;SDS011;41294;42.666;23.350;2023-03-01T16:10:33;4.30;;;3.30;;
55423;SDS011;41294;42.666;23.350;2023-03-01T16:12:59;4.43;;;3.10;;
55423;SDS011;41294;42.666;23.350;2023-03-01T16:15:31;4.47;;;2.97;;
55423;SDS011;41294;42.666;23.350;2023-03-01T16:17:59;5.00;;;3.83;;
55423;SDS011;41294;42.666;23.350;2023-03-01T16:20:28;3.93;;;3.10;;
55423;SDS011;41294;42.666;23.350;2023-03-01T16:22:55;4.77;;;3.40;;
55423;SDS011;41294;42.666;23.350;2023-03-01T16:25:23;4.47;;;3.20;;
55423;SDS011;41294;42.666;23.350;2023-03-01T16:27:49;5.30;;;3.57;;
55423;SDS011;41294;42.666;23.350;2023-03-01T16:30:16;5.83;;;3.50;;
55423;SDS011;41294;42.666;23.350;2023-03-01T16:32:45;3.97;;;2.97;;
55423;SDS011;41294;42.666;23.350;2023-03-01T16:35:12;4.67;;;3.50;;
55423;SDS011;41294;42.666;23.350;2023-03-01T16:37:38;3.33;;;3.03;;
55423;SDS011;41294;42.666;23.350;2023-03-01T16:40:05;4.07;;;3.20;;
55423;SDS011;41294;42.666;23.350;2023-03-01T16:42:35;4.57;;;3.30;;
55423;SDS011;41294;42.666;23.350;2023-03-01T16:45:01;3.90;;;3.23;;
55423;SDS011;41294;42.666;23.350;2023-03-01T16:47:28;6.07;;;3.33;;
55423;SDS011;41294;42.666;23.350;2023-03-01T16:49:53;3.73;;;3.40;;
55423;SDS011;41294;42.666;23.350;2023-03-01T16:52:20;2.63;;;2.20;;
55423;SDS011;41294;42.666;23.350;2023-03-01T16:54:46;3.83;;;2.90;;
55423;SDS011;41294;42.666;23.350;2023-03-01T16:57:11;4.27;;;3.03;;
55423;SDS011;41294;42.666;23.350;2023-03-01T16:59:36;3.10;;;2.73;;
55423;SDS011;41294;42.666;23.350;2023-03-01T17:02:02;3.73;;;3.20;;
55423;SDS011;41294;42.666;23.350;2023-03-01T17:04:29;3.17;;;2.17;;
55423;SDS011;41294;42.666;23.350;2023-03-01T17:06:54;5.73;;;3.47;;